Time;durP1;ratioP1;P1;durP2;ratioP2;P2;SDS_P1;SDS_P2;PMS_P1;PMS_P2;Temp;Humidity;BMP_temperature;BMP_pressure;BME280_temperature;BME280_humidity;BME280_pressure;Samples;Min_cycle;Max_cycle;Signal;HPM_P1;HPM_P2
2023/11/14 00:01:09;;;;;;;14.95;3.42;;;11.10;59.10;;;;;;7376190;19;20018;-71
2023/11/14 00:03:39;;;;;;;10.60;2.60;;;11.10;47.80;;;;;;7376718;19;20075;-71
2023/11/14 00:06:09;;;;;;;12.80;2.92;;;11.10;33.10;;;;;;7377603;19;20018;-71
2023/11/14 00:08:42;;;;;;;9.48;3.05;;;11.20;26.70;;;;;;7378222;19;20006;-71
2023/11/14 00:11:13;;;;;;;12.48;3.28;;;11.20;28.40;;;;;;7376709;19;20173;-71
2023/11/14 00:13:43;;;;;;;15.35;3.47;;;11.20;20.10;;;;;;7375325;19;20010;-71
2023/11/14 00:16:13;;;;;;;12.32;2.65;;;11.20;11.00;;;;;;7375608;19;20007;-71
2023/11/14 00:18:43;;;;;;;12.20;2.92;;;11.20;16.10;;;;;;7377564;19;20101;-71
2023/11/14 00:21:13;;;;;;;12.18;3.45;;;11.10;14.40;;;;;;7373979;19;20014;-71
2023/11/14 00:23:46;;;;;;;10.60;3.22;;;11.10;4.40;;;;;;7374082;19;20067;-71
2023/11/14 00:26:16;;;;;;;8.85;2.70;;;11.20;1.00;;;;;;7373210;19;20032;-71
2023/11/14 00:28:46;;;;;;;16.70;3.00;;;11.20;1.00;;;;;;7375369;19;20010;-70
2023/11/14 00:31:16;;;;;;;11.45;2.85;;;11.10;1.00;;;;;;7373640;19;20010;-71
2023/11/14 00:33:46;;;;;;;15.25;3.60;;;11.10;1.00;;;;;;7374700;19;20082;-70
2023/11/14 00:36:16;;;;;;;12.45;2.50;;;11.10;1.00;;;;;;7375116;19;20007;-71
2023/11/14 00:38:49;;;;;;;13.45;3.45;;;11.10;1.00;;;;;;7376568;19;20101;-70
2023/11/14 00:41:19;;;;;;;7.40;3.05;;;11.00;1.00;;;;;;7375866;19;20022;-70
2023/11/14 00:43:49;;;;;;;10.20;2.47;;;11.00;1.00;;;;;;7374560;19;20508;-71
2023/11/14 00:46:19;;;;;;;14.63;2.50;;;10.90;1.00;;;;;;7378756;19;20023;-71
2023/11/14 00:48:48;;;;;;;8.60;2.58;;;10.90;1.00;;;;;;7378400;19;20121;-71
2023/11/14 00:51:18;;;;;;;14.82;3.03;;;10.80;1.00;;;;;;7374379;19;20012;-71
2023/11/14 00:53:52;;;;;;;9.10;2.47;;;10.80;1.00;;;;;;7374457;19;20118;-71
2023/11/14 00:56:22;;;;;;;10.57;2.40;;;10.70;1.00;;;;;;7375175;19;20007;-71
2023/11/14 00:58:52;;;;;;;8.55;2.55;;;10.70;1.00;;;;;;7382681;19;20007;-71
2023/11/14 01:01:22;;;;;;;11.60;3.10;;;10.70;1.00;;;;;;7380678;19;20009;-71
2023/11/14 01:03:52;;;;;;;9.73;2.80;;;10.60;1.00;;;;;;7377155;19;20462;-73
2023/11/14 01:06:23;;;;;;;10.98;3.03;;;10.70;1.00;;;;;;7381328;19;20086;-71
2023/11/14 01:08:55;;;;;;;7.75;2.50;;;10.60;1.00;;;;;;7381471;19;20070;-71
2023/11/14 01:11:25;;;;;;;10.25;2.80;;;10.60;1.00;;;;;;7382407;19;20015;-71
2023/11/14 01:13:57;;;;;;;11.45;2.65;;;10.60;1.00;;;;;;7380959;19;20057;-72
2023/11/14 01:16:27;;;;;;;9.02;2.22;;;10.50;4.90;;;;;;7381114;19;20014;-71
2023/11/14 01:18:57;;;;;;;14.38;2.97;;;10.50;9.20;;;;;;7383147;19;20025;-70
2023/11/14 01:21:28;;;;;;;12.15;3.22;;;10.50;11.90;;;;;;7381375;19;20510;-71
2023/11/14 01:24:01;;;;;;;11.23;3.08;;;10.60;9.60;;;;;;7381732;19;20340;-71
2023/11/14 01:26:35;;;;;;;11.40;2.60;;;10.60;11.30;;;;;;7379120;19;20035;-70
2023/11/14 01:29:05;;;;;;;8.98;2.28;;;10.60;10.70;;;;;;7382722;19;20014;-72
2023/11/14 01:31:36;;;;;;;7.05;2.22;;;10.50;12.30;;;;;;7382603;19;21106;-71
2023/11/14 01:34:06;;;;;;;10.80;2.40;;;10.50;13.80;;;;;;7382263;19;20010;-71
2023/11/14 01:36:37;;;;;;;11.82;2.08;;;10.50;13.70;;;;;;7378631;19;20471;-70
2023/11/14 01:39:10;;;;;;;8.68;2.13;;;10.50;8.40;;;;;;7382976;19;20007;-71
2023/11/14 01:41:40;;;;;;;11.38;2.75;;;10.50;4.20;;;;;;7381919;19;20015;-71
2023/11/14 01:44:11;;;;;;;13.98;3.05;;;10.50;1.70;;;;;;7381335;19;20010;-71
2023/11/14 01:46:41;;;;;;;9.25;2.50;;;10.50;1.50;;;;;;7382012;19;20085;-70
2023/11/14 01:49:11;;;;;;;7.55;2.60;;;10.50;2.90;;;;;;7378344;19;20014;-71
2023/11/14 01:51:42;;;;;;;12.70;2.50;;;10.50;4.30;;;;;;7382538;19;20007;-70
2023/11/14 01:54:15;;;;;;;6.45;2.30;;;10.60;2.80;;;;;;7379635;19;20013;-71
2023/11/14 01:56:45;;;;;;;8.57;2.45;;;10.50;1.10;;;;;;7378283;19;20039;-70
2023/11/14 01:59:16;;;;;;;11.50;2.67;;;10.50;4.60;;;;;;7380327;19;20463;-71
2023/11/14 02:01:46;;;;;;;8.18;2.35;;;10.50;5.00;;;;;;7378895;19;20042;-70
2023/11/14 02:04:21;;;;;;;11.57;2.72;;;10.50;8.70;;;;;;7378281;19;20035;-69
2023/11/14 02:06:51;;;;;;;11.07;2.88;;;10.50;11.30;;;;;;7380323;19;20031;-69
2023/11/14 02:09:25;;;;;;;11.02;2.60;;;10.50;10.50;;;;;;7377545;19;20486;-70
2023/11/14 02:11:56;;;;;;;;;;;10.40;14.90;;;;;;7380926;19;20049;-70
2023/11/14 02:14:26;;;;;;;7.55;2.83;;;10.50;11.20;;;;;;7378260;19;19922;-70
2023/11/14 02:16:57;;;;;;;10.27;2.67;;;10.50;9.70;;;;;;7379777;19;20495;-70
2023/11/14 02:19:27;;;;;;;10.23;2.97;;;10.50;10.80;;;;;;7378958;19;20010;-70
2023/11/14 02:21:57;;;;;;;15.13;3.10;;;10.70;1.00;;;;;;7379121;19;20014;-70
2023/11/14 02:24:31;;;;;;;11.82;2.75;;;10.60;1.00;;;;;;7378573;19;20044;-70
2023/11/14 02:27:04;;;;;;;9.15;2.67;;;10.60;1.00;;;;;;7379095;19;20014;-70
2023/11/14 02:29:35;;;;;;;13.98;2.90;;;10.70;1.00;;;;;;7379352;19;20163;-71
2023/11/14 02:32:05;;;;;;;11.20;2.95;;;10.60;1.00;;;;;;7380764;19;20019;-70
2023/11/14 02:34:35;;;;;;;12.32;2.53;;;10.60;1.00;;;;;;7378477;19;20140;-71
2023/11/14 02:37:06;;;;;;;12.40;2.80;;;10.60;1.00;;;;;;7381032;19;20053;-71
2023/11/14 02:39:36;;;;;;;9.15;2.55;;;10.50;4.60;;;;;;7379202;19;20106;-71
2023/11/14 02:42:11;;;;;;;10.60;2.83;;;10.50;6.30;;;;;;7380280;19;20118;-71
2023/11/14 02:44:41;;;;;;;9.30;2.55;;;10.50;6.30;;;;;;7378146;19;20018;-71
2023/11/14 02:47:11;;;;;;;12.82;2.72;;;10.50;4.30;;;;;;7379843;19;20050;-71
2023/11/14 02:49:57;;;;;;;10.65;2.85;;;10.50;1.00;;;;;;7378007;19;20123;-71
2023/11/14 02:52:27;;;;;;;10.95;2.50;;;10.60;1.00;;;;;;7373517;19;20364;-71
2023/11/14 02:54:57;;;;;;;14.85;2.40;;;10.60;1.00;;;;;;7377370;19;20474;-71
2023/11/14 02:57:30;;;;;;;10.75;2.90;;;10.60;1.00;;;;;;7378032;19;20022;-71
2023/11/14 03:00:00;;;;;;;7.35;2.30;;;10.60;1.00;;;;;;7378241;19;20063;-71
2023/11/14 03:02:29;;;;;;;12.23;2.83;;;10.60;1.00;;;;;;7377585;19;20036;-72
2023/11/14 03:05:00;;;;;;;14.60;2.83;;;10.60;1.00;;;;;;7377151;19;20014;-71
2023/11/14 03:07:33;;;;;;;9.77;2.50;;;10.60;1.00;;;;;;7376078;19;20192;-70
2023/11/14 03:10:03;;;;;;;9.95;2.42;;;10.50;1.00;;;;;;7378483;19;20073;-70
2023/11/14 03:12:36;;;;;;;15.40;3.15;;;10.60;1.00;;;;;;7377870;19;20031;-71
2023/11/14 03:15:07;;;;;;;9.65;2.53;;;10.60;1.00;;;;;;7376779;19;20510;-72
2023/11/14 03:17:37;;;;;;;14.40;3.33;;;10.50;1.00;;;;;;7378509;19;20017;-71
2023/11/14 03:20:08;;;;;;;8.95;2.80;;;10.50;1.00;;;;;;7376589;19;20007;-72
2023/11/14 03:22:53;;;;;;;11.82;2.90;;;10.40;1.00;;;;;;7375865;19;20021;-69
2023/11/14 03:25:23;;;;;;;8.73;2.75;;;10.50;1.00;;;;;;7378517;19;20015;-69
2023/11/14 03:27:56;;;;;;;10.98;2.55;;;10.50;1.00;;;;;;7383435;19;20011;-71
2023/11/14 03:30:26;;;;;;;13.15;3.17;;;10.50;1.00;;;;;;7377220;19;20011;-69
2023/11/14 03:32:57;;;;;;;9.85;2.83;;;10.50;1.00;;;;;;7377593;19;20007;-69
2023/11/14 03:35:27;;;;;;;13.50;2.75;;;10.50;1.00;;;;;;7376308;19;20007;-70
2023/11/14 03:37:57;;;;;;;12.82;3.15;;;10.50;1.00;;;;;;7377345;19;20010;-70
2023/11/14 03:40:28;;;;;;;13.23;2.70;;;10.40;1.00;;;;;;7377212;19;20035;-70
2023/11/14 03:43:00;;;;;;;15.05;3.33;;;10.50;1.00;;;;;;7377563;19;20010;-70
2023/11/14 03:45:30;;;;;;;12.13;2.60;;;10.40;1.00;;;;;;7375190;19;20070;-70
2023/11/14 03:48:00;;;;;;;10.98;2.75;;;10.40;3.50;;;;;;7376560;19;20011;-70
2023/11/14 03:50:30;;;;;;;11.80;2.70;;;10.40;4.90;;;;;;7377606;19;20002;-72
2023/11/14 03:53:00;;;;;;;10.55;2.60;;;10.30;8.40;;;;;;7377449;19;20010;-72
2023/11/14 03:55:30;;;;;;;12.55;2.72;;;10.30;10.20;;;;;;7377787;19;20015;-71
2023/11/14 03:58:03;;;;;;;10.38;2.78;;;10.30;14.80;;;;;;7378213;19;20022;-72
2023/11/14 04:00:33;;;;;;;13.02;3.35;;;10.20;17.80;;;;;;7374186;19;20097;-71
2023/11/14 04:03:03;;;;;;;11.07;2.80;;;10.20;22.10;;;;;;7375894;19;20011;-70
2023/11/14 04:05:33;;;;;;;8.52;2.92;;;10.10;26.50;;;;;;7375606;19;20010;-71
2023/11/14 04:08:03;;;;;;;13.02;2.92;;;10.10;26.40;;;;;;7377636;19;20020;-70
2023/11/14 04:10:33;;;;;;;15.13;3.40;;;10.10;26.50;;;;;;7376104;19;20011;-70
2023/11/14 04:13:08;;;;;;;15.80;3.08;;;10.00;27.60;;;;;;7376538;19;20010;-70
2023/11/14 04:15:38;;;;;;;9.80;2.78;;;10.00;35.80;;;;;;7373376;19;20022;-70
2023/11/14 04:18:09;;;;;;;11.00;2.60;;;9.90;39.30;;;;;;7374000;19;20009;-70
2023/11/14 04:20:40;;;;;;;10.55;2.70;;;10.10;29.60;;;;;;7371827;19;20027;-70
2023/11/14 04:23:11;;;;;;;13.05;2.78;;;10.10;29.30;;;;;;7373119;19;20014;-70
2023/11/14 04:25:41;;;;;;;10.57;3.03;;;10.30;23.60;;;;;;7373197;19;20011;-70
2023/11/14 04:28:13;;;;;;;12.13;2.70;;;10.40;8.80;;;;;;7374931;19;20015;-70
2023/11/14 04:30:43;;;;;;;11.40;2.72;;;10.30;9.40;;;;;;7376313;19;20078;-70
2023/11/14 04:33:13;;;;;;;9.73;2.47;;;10.50;7.60;;;;;;7382379;19;20423;-70
2023/11/14 04:35:43;;;;;;;14.68;2.60;;;10.50;7.00;;;;;;7381042;19;20006;-70
2023/11/14 04:38:13;;;;;;;8.65;2.47;;;10.50;8.50;;;;;;7379273;19;20007;-71
2023/11/14 04:40:44;;;;;;;9.68;2.42;;;10.60;1.00;;;;;;7379758;19;20118;-71
2023/11/14 04:43:17;;;;;;;7.15;2.25;;;10.70;1.00;;;;;;7372764;19;20011;-71
2023/11/14 04:45:47;;;;;;;9.02;2.33;;;10.60;1.00;;;;;;7373535;19;20018;-71
2023/11/14 04:48:18;;;;;;;7.90;2.40;;;10.70;1.00;;;;;;7372865;19;20391;-71
2023/11/14 04:50:48;;;;;;;11.88;2.72;;;10.70;1.00;;;;;;7375435;19;20023;-71
2023/11/14 04:53:18;;;;;;;11.55;2.47;;;10.70;1.00;;;;;;7372196;19;20147;-71
2023/11/14 04:55:50;;;;;;;10.27;2.92;;;10.60;1.00;;;;;;7371043;19;20019;-72
2023/11/14 04:58:23;;;;;;;12.48;2.63;;;10.70;1.00;;;;;;7373532;19;20036;-70
2023/11/14 05:00:53;;;;;;;10.07;2.30;;;10.60;1.00;;;;;;7376753;19;20010;-71
2023/11/14 05:03:24;;;;;;;7.80;2.28;;;10.60;1.00;;;;;;7375040;19;20094;-71
2023/11/14 05:05:55;;;;;;;8.57;2.33;;;10.50;1.00;;;;;;7373120;19;20028;-72
2023/11/14 05:08:26;;;;;;;11.68;2.58;;;10.60;1.00;;;;;;7372248;19;20014;-72
2023/11/14 05:10:56;;;;;;;9.73;2.85;;;10.60;1.00;;;;;;7370030;19;20022;-73
2023/11/14 05:13:29;;;;;;;9.40;2.22;;;10.60;1.00;;;;;;7375353;19;20018;-72
2023/11/14 05:16:00;;;;;;;11.18;2.05;;;10.60;1.00;;;;;;7373998;19;20098;-71
2023/11/14 05:18:51;;;;;;;9.55;2.80;;;10.60;1.00;;;;;;7378496;19;20014;-70
2023/11/14 05:21:21;;;;;;;10.15;2.83;;;10.50;1.00;;;;;;7382614;19;20007;-70
2023/11/14 05:23:51;;;;;;;9.00;2.92;;;10.50;1.00;;;;;;7379093;19;20017;-71
2023/11/14 05:26:22;;;;;;;7.63;2.50;;;10.30;1.00;;;;;;7381533;19;20007;-71
2023/11/14 05:28:55;;;;;;;9.50;3.33;;;10.40;1.00;;;;;;7380607;19;20093;-69
2023/11/14 05:31:25;;;;;;;10.07;2.40;;;10.40;1.00;;;;;;7381696;19;20017;-71
2023/11/14 05:33:55;;;;;;;9.60;2.53;;;10.40;1.00;;;;;;7381104;19;20074;-72
2023/11/14 05:36:25;;;;;;;10.55;2.60;;;10.40;1.00;;;;;;7382631;19;20002;-71
2023/11/14 05:38:55;;;;;;;9.73;2.72;;;10.70;1.00;;;;;;7381756;19;19999;-72
2023/11/14 05:41:25;;;;;;;10.13;2.85;;;10.50;1.00;;;;;;7381175;19;20119;-69
2023/11/14 05:43:57;;;;;;;8.05;2.45;;;10.50;1.00;;;;;;7377596;19;20022;-71
2023/11/14 05:46:28;;;;;;;10.88;2.85;;;10.50;1.00;;;;;;7379205;19;20006;-72
2023/11/14 05:48:58;;;;;;;9.50;2.55;;;10.50;1.00;;;;;;7381179;19;20033;-70
2023/11/14 05:51:28;;;;;;;9.52;2.40;;;10.40;1.00;;;;;;7381568;19;20026;-72
2023/11/14 05:53:59;;;;;;;7.13;2.40;;;10.50;1.00;;;;;;7379614;19;20036;-71
2023/11/14 05:56:29;;;;;;;11.57;2.65;;;10.50;1.00;;;;;;7380201;19;20026;-70
2023/11/14 05:59:01;;;;;;;7.65;2.67;;;10.60;1.00;;;;;;7379533;19;20049;-70
2023/11/14 06:01:31;;;;;;;9.27;2.10;;;10.50;1.00;;;;;;7379471;19;20043;-71
2023/11/14 06:04:01;;;;;;;7.90;2.67;;;10.50;1.00;;;;;;7378744;19;20613;-70
2023/11/14 06:06:31;;;;;;;10.82;3.13;;;10.60;1.00;;;;;;7385441;19;20104;-71
2023/11/14 06:09:01;;;;;;;11.00;2.75;;;10.50;1.00;;;;;;7384394;19;20010;-71
2023/11/14 06:11:31;;;;;;;9.15;2.92;;;10.60;1.00;;;;;;7378921;19;20508;-71
2023/11/14 06:14:04;;;;;;;10.13;2.45;;;10.50;1.00;;;;;;7378076;19;20452;-71
2023/11/14 06:16:34;;;;;;;10.68;3.10;;;10.50;1.00;;;;;;7379958;19;20034;-71
2023/11/14 06:19:04;;;;;;;10.23;2.60;;;10.50;1.00;;;;;;7380400;19;20038;-71
2023/11/14 06:21:34;;;;;;;9.25;2.70;;;10.50;1.00;;;;;;7378792;19;20709;-70
2023/11/14 06:24:04;;;;;;;12.38;3.03;;;10.40;1.00;;;;;;7377710;19;20014;-70
2023/11/14 06:26:34;;;;;;;8.57;2.55;;;10.30;1.00;;;;;;7379784;19;20006;-70
2023/11/14 06:29:07;;;;;;;10.32;2.90;;;10.20;1.00;;;;;;7378348;19;20014;-70
2023/11/14 06:31:36;;;;;;;8.43;2.80;;;10.20;1.00;;;;;;7378686;19;20506;-70
2023/11/14 06:34:07;;;;;;;9.38;2.83;;;10.20;1.00;;;;;;7378493;19;20018;-70
2023/11/14 06:36:36;;;;;;;8.88;2.92;;;10.10;1.00;;;;;;7378571;19;20039;-71
2023/11/14 06:39:07;;;;;;;8.77;2.47;;;10.00;1.00;;;;;;7378768;19;20015;-70
2023/11/14 06:41:37;;;;;;;10.43;2.63;;;10.00;1.00;;;;;;7377407;19;20086;-70
2023/11/14 06:44:10;;;;;;;10.40;2.80;;;9.90;1.00;;;;;;7377123;19;20036;-71
2023/11/14 06:46:40;;;;;;;11.60;2.95;;;9.90;1.00;;;;;;7377998;19;20002;-71
2023/11/14 06:49:10;;;;;;;10.90;2.92;;;9.90;1.00;;;;;;7378806;19;20086;-71
2023/11/14 06:51:39;;;;;;;8.60;2.85;;;9.90;1.00;;;;;;7377805;19;20014;-71
2023/11/14 06:54:09;;;;;;;9.40;2.63;;;9.90;1.00;;;;;;7375566;19;20050;-71
2023/11/14 06:56:39;;;;;;;8.85;3.13;;;9.90;1.00;;;;;;7376770;19;20003;-72
2023/11/14 06:59:12;;;;;;;12.63;4.50;;;10.00;1.00;;;;;;7375789;19;20125;-71
2023/11/14 07:01:42;;;;;;;8.98;3.88;;;10.00;1.00;;;;;;7377736;19;20500;-71
2023/11/14 07:04:12;;;;;;;13.98;4.25;;;10.00;1.00;;;;;;7378517;19;20027;-71
2023/11/14 07:06:42;;;;;;;13.70;3.50;;;10.00;1.00;;;;;;7377912;19;20014;-71
2023/11/14 07:09:15;;;;;;;14.88;4.65;;;10.10;1.00;;;;;;7378755;19;20050;-71
2023/11/14 07:11:47;;;;;;;9.02;3.70;;;10.10;1.00;;;;;;7377271;19;20021;-71
2023/11/14 07:14:21;;;;;;;10.95;3.75;;;10.20;1.00;;;;;;7376629;19;20011;-71
2023/11/14 07:16:51;;;;;;;10.57;3.67;;;10.20;1.00;;;;;;7375859;19;20031;-71
2023/11/14 07:19:23;;;;;;;11.45;3.70;;;10.20;1.00;;;;;;7375813;19;20834;-72
2023/11/14 07:21:53;;;;;;;10.90;3.70;;;10.20;1.00;;;;;;7374364;19;20022;-71
2023/11/14 07:24:23;;;;;;;8.40;3.05;;;10.20;1.00;;;;;;7374288;19;21299;-71
2023/11/14 07:26:53;;;;;;;9.20;3.75;;;10.20;1.00;;;;;;7373999;19;22317;-70
2023/11/14 07:29:26;;;;;;;11.43;4.32;;;10.30;1.00;;;;;;7372957;19;20041;-70
2023/11/14 07:31:56;;;;;;;6.47;3.25;;;10.40;1.00;;;;;;7375003;19;20006;-71
2023/11/14 07:34:26;;;;;;;10.05;3.13;;;10.40;1.00;;;;;;7376464;19;20093;-71
2023/11/14 07:36:56;;;;;;;10.75;3.67;;;10.40;1.00;;;;;;7376093;19;20351;-72
2023/11/14 07:39:28;;;;;;;12.20;3.28;;;10.40;1.00;;;;;;7375060;19;20739;-70
2023/11/14 07:41:58;;;;;;;8.48;3.38;;;10.30;1.00;;;;;;7376210;19;20014;-71
2023/11/14 07:44:31;;;;;;;14.27;3.70;;;10.30;1.00;;;;;;7374271;19;20085;-70
2023/11/14 07:47:01;;;;;;;8.52;3.47;;;10.30;1.00;;;;;;7376423;19;20010;-71
2023/11/14 07:49:44;;;;;;;12.50;3.35;;;10.20;1.00;;;;;;7374746;19;20086;-71
2023/11/14 07:52:14;;;;;;;9.13;3.20;;;10.20;1.00;;;;;;7375304;19;20467;-70
2023/11/14 07:54:44;;;;;;;10.18;3.55;;;10.30;1.00;;;;;;7374554;19;20037;-71
2023/11/14 07:57:14;;;;;;;10.50;3.58;;;10.30;1.00;;;;;;7373877;19;20030;-71
2023/11/14 07:59:47;;;;;;;10.35;3.20;;;10.30;1.00;;;;;;7375973;19;20014;-70
2023/11/14 08:02:17;;;;;;;7.72;3.08;;;10.40;1.00;;;;;;7376446;19;20003;-72
2023/11/14 08:04:48;;;;;;;9.23;2.83;;;10.50;1.00;;;;;;7375824;19;20002;-70
2023/11/14 08:07:18;;;;;;;10.57;3.35;;;10.50;1.00;;;;;;7376412;19;20090;-70
2023/11/14 08:09:49;;;;;;;11.20;2.75;;;10.60;1.00;;;;;;7375955;19;20010;-71
2023/11/14 08:12:18;;;;;;;11.02;3.30;;;10.70;1.00;;;;;;7376755;19;20036;-71
2023/11/14 08:14:52;;;;;;;12.57;3.33;;;10.80;1.00;;;;;;7374754;19;20010;-71
2023/11/14 08:17:22;;;;;;;6.35;2.70;;;10.90;1.00;;;;;;7375406;19;20014;-71
2023/11/14 08:19:52;;;;;;;11.50;2.55;;;11.00;1.00;;;;;;7375794;19;20366;-71
2023/11/14 08:22:23;;;;;;;7.85;2.70;;;11.00;1.00;;;;;;7375877;19;20535;-71
2023/11/14 08:24:53;;;;;;;11.65;3.42;;;11.10;1.00;;;;;;7374375;19;20011;-71
2023/11/14 08:27:23;;;;;;;6.90;2.78;;;11.20;1.00;;;;;;7374873;19;20024;-71
2023/11/14 08:29:57;;;;;;;5.45;2.10;;;11.20;1.00;;;;;;7374021;19;20021;-71
2023/11/14 08:32:27;;;;;;;;;;;11.20;1.00;;;;;;7375690;19;20486;-71
2023/11/14 08:34:58;;;;;;;3.58;1.40;;;11.20;1.00;;;;;;7373676;19;20053;-71
2023/11/14 08:37:28;;;;;;;5.40;1.88;;;11.20;1.00;;;;;;7375263;19;20025;-71
2023/11/14 08:39:58;;;;;;;4.07;1.60;;;11.20;1.00;;;;;;7375567;19;22310;-71
2023/11/14 08:42:28;;;;;;;8.77;2.08;;;11.30;1.00;;;;;;7376146;19;20538;-71
2023/11/14 08:45:02;;;;;;;4.30;1.88;;;11.30;1.00;;;;;;7376511;19;20026;-71
2023/11/14 08:47:32;;;;;;;8.60;1.65;;;11.40;1.00;;;;;;7381882;19;20066;-71
2023/11/14 08:50:02;;;;;;;5.32;1.40;;;11.50;1.00;;;;;;7377103;19;20078;-72
2023/11/14 08:52:34;;;;;;;6.07;2.00;;;11.60;1.00;;;;;;7374723;19;20038;-71
2023/11/14 08:55:06;;;;;;;7.13;1.73;;;11.70;1.00;;;;;;7375760;19;20051;-71
2023/11/14 08:57:36;;;;;;;4.35;1.73;;;11.70;1.00;;;;;;7376144;19;20021;-71
2023/11/14 09:00:12;;;;;;;3.42;1.38;;;11.70;1.00;;;;;;7376477;19;20011;-71
2023/11/14 09:02:42;;;;;;;8.25;1.70;;;11.80;1.00;;;;;;7373599;19;20035;-70
2023/11/14 09:05:12;;;;;;;4.82;1.40;;;11.80;1.00;;;;;;7373243;19;20024;-70
2023/11/14 09:07:43;;;;;;;6.35;1.30;;;11.80;1.00;;;;;;7373593;19;20565;-69
2023/11/14 09:10:13;;;;;;;3.72;1.10;;;11.80;1.00;;;;;;7373084;19;20008;-70
2023/11/14 09:12:43;;;;;;;5.85;1.30;;;11.80;1.00;;;;;;7373846;19;20037;-71
2023/11/14 09:15:16;;;;;;;6.88;1.20;;;11.70;1.00;;;;;;7371639;19;20116;-70
2023/11/14 09:17:46;;;;;;;5.13;1.30;;;11.70;1.00;;;;;;7375452;19;20512;-71
2023/11/14 09:20:25;;;;;;;4.10;1.85;;;11.80;1.00;;;;;;7380224;19;20029;-71
2023/11/14 09:22:56;;;;;;;3.58;1.08;;;11.90;1.00;;;;;;7380513;19;20051;-71
2023/11/14 09:25:30;;;;;;;4.13;1.27;;;11.80;1.00;;;;;;7379291;19;20006;-71
2023/11/14 09:28:03;;;;;;;4.25;1.20;;;11.90;1.00;;;;;;7381859;19;20013;-70
2023/11/14 09:30:36;;;;;;;3.70;1.10;;;11.90;1.00;;;;;;7380787;19;20010;-70
2023/11/14 09:33:06;;;;;;;3.47;1.23;;;11.90;1.00;;;;;;7378967;19;20010;-70
2023/11/14 09:35:36;;;;;;;6.95;1.52;;;12.00;1.00;;;;;;7379802;19;20467;-70
2023/11/14 09:38:06;;;;;;;3.80;1.10;;;11.90;1.00;;;;;;7380271;19;20824;-71
2023/11/14 09:40:37;;;;;;;6.05;1.27;;;12.00;1.00;;;;;;7379850;19;20015;-70
2023/11/14 09:43:07;;;;;;;4.80;1.40;;;12.10;1.00;;;;;;7381444;19;20035;-71
2023/11/14 09:45:41;;;;;;;4.70;1.17;;;12.10;1.00;;;;;;7379353;19;20013;-71
2023/11/14 09:48:12;;;;;;;5.65;1.38;;;12.00;1.00;;;;;;7378361;19;20010;-71
2023/11/14 09:50:43;;;;;;;4.30;1.27;;;12.00;1.00;;;;;;7378530;19;20010;-71
2023/11/14 09:53:14;;;;;;;5.00;0.90;;;12.00;1.00;;;;;;7381606;19;20019;-72
2023/11/14 09:55:47;;;;;;;3.45;1.00;;;12.00;1.00;;;;;;7379786;19;20011;-71
2023/11/14 09:58:18;;;;;;;2.72;1.10;;;12.00;1.00;;;;;;7380276;19;20006;-70
2023/11/14 10:00:51;;;;;;;3.20;1.13;;;11.90;1.00;;;;;;7379160;19;20013;-70
2023/11/14 10:03:21;;;;;;;2.83;0.95;;;11.90;1.00;;;;;;7379811;19;20014;-70
2023/11/14 10:05:52;;;;;;;3.15;0.80;;;11.90;1.00;;;;;;7379629;19;20018;-71
2023/11/14 10:08:22;;;;;;;1.98;1.23;;;11.90;1.00;;;;;;7380658;19;20018;-71
2023/11/14 10:11:11;;;;;;;3.15;1.00;;;11.90;1.00;;;;;;7381130;19;20398;-70
2023/11/14 10:13:42;;;;;;;8.13;4.30;;;11.80;1.00;;;;;;7381285;19;20028;-72
2023/11/14 10:16:21;;;;;;;3.22;0.93;;;11.90;1.00;;;;;;7380818;19;20010;-70
2023/11/14 10:18:52;;;;;;;4.88;0.93;;;11.80;1.00;;;;;;7375398;19;20006;-70
2023/11/14 10:21:30;;;;;;;4.07;1.20;;;11.90;1.00;;;;;;7378801;19;20525;-70
2023/11/14 10:24:12;;;;;;;4.38;1.13;;;11.90;1.00;;;;;;7379052;19;20018;-71
2023/11/14 10:26:53;;;;;;;5.03;1.48;;;11.90;1.00;;;;;;7380052;19;20676;-70
2023/11/14 10:29:25;;;;;;;5.70;1.45;;;11.90;1.00;;;;;;6868909;19;2004804;-71
2023/11/14 10:31:57;;;;;;;4.57;1.13;;;11.90;1.00;;;;;;7378720;19;20026;-71
2023/11/14 10:34:29;;;;;;;2.60;0.93;;;11.90;1.00;;;;;;7378011;19;20552;-71
2023/11/14 10:37:01;;;;;;;2.38;0.88;;;11.80;1.00;;;;;;7378683;19;20011;-71
2023/11/14 10:39:32;;;;;;;5.30;1.20;;;11.90;1.00;;;;;;7378923;19;20093;-71
2023/11/14 10:42:10;;;;;;;5.05;1.50;;;11.80;1.00;;;;;;7378883;19;20018;-71
2023/11/14 10:44:40;;;;;;;4.13;1.17;;;11.90;1.00;;;;;;7377679;19;20007;-71
2023/11/14 10:47:13;;;;;;;5.97;0.95;;;12.00;1.00;;;;;;7377439;19;20006;-71
2023/11/14 10:49:48;;;;;;;3.13;1.23;;;12.00;1.00;;;;;;7379231;19;20193;-70
2023/11/14 10:52:20;;;;;;;2.55;1.10;;;12.10;1.00;;;;;;7374441;19;20015;-71
2023/11/14 10:54:51;;;;;;;2.40;0.90;;;12.10;1.00;;;;;;7376344;19;20119;-71
2023/11/14 10:57:22;;;;;;;2.90;0.80;;;12.10;1.00;;;;;;7376058;19;20013;-70
2023/11/14 10:59:57;;;;;;;2.83;0.90;;;12.10;1.00;;;;;;7377758;19;20089;-71
2023/11/14 11:02:35;;;;;;;2.85;0.80;;;12.20;1.00;;;;;;7377635;19;20006;-71
2023/11/14 11:05:05;;;;;;;3.33;1.40;;;12.20;1.00;;;;;;7379518;19;20018;-71
2023/11/14 11:07:40;;;;;;;11.70;5.68;;;12.20;1.00;;;;;;7379105;19;20345;-71
2023/11/14 11:10:12;;;;;;;4.05;1.10;;;12.20;1.00;;;;;;7379622;19;20036;-71
2023/11/14 11:12:43;;;;;;;2.50;1.00;;;12.20;1.00;;;;;;7377353;19;20074;-71
2023/11/14 11:15:14;;;;;;;3.08;1.15;;;12.20;1.00;;;;;;7378281;19;20058;-72
2023/11/14 11:17:49;;;;;;;3.80;1.00;;;12.20;1.00;;;;;;7377360;19;20016;-72
2023/11/14 11:20:26;;;;;;;4.93;1.17;;;12.20;1.00;;;;;;7376778;19;20014;-71
2023/11/14 11:23:08;;;;;;;2.88;1.15;;;12.30;1.00;;;;;;7376884;19;20023;-71
2023/11/14 11:25:41;;;;;;;3.80;0.95;;;12.40;1.00;;;;;;7380799;19;20011;-71
2023/11/14 11:28:35;;;;;;;6.20;1.65;;;12.50;1.00;;;;;;7381185;19;20014;-72
2023/11/14 11:31:14;;;;;;;3.53;1.00;;;12.50;1.00;;;;;;6867925;19;2004586;-71
2023/11/14 11:33:47;;;;;;;3.20;1.05;;;12.50;1.00;;;;;;7378457;19;20086;-71
2023/11/14 11:36:30;;;;;;;5.18;1.50;;;12.40;1.00;;;;;;7377938;19;20111;-71
2023/11/14 11:39:02;;;;;;;3.58;1.20;;;12.40;1.00;;;;;;6865622;19;2004087;-71
2023/11/14 11:41:34;;;;;;;4.07;1.40;;;12.40;1.00;;;;;;7372974;19;20036;-72
2023/11/14 11:44:10;;;;;;;5.82;1.60;;;12.40;1.00;;;;;;7374893;19;20010;-71
2023/11/14 11:46:44;;;;;;;2.33;1.05;;;12.50;1.00;;;;;;7378437;19;19994;-70
2023/11/14 11:49:33;;;;;;;5.55;1.15;;;12.60;1.00;;;;;;7379031;19;20017;-70
2023/11/14 11:52:17;;;;;;;4.43;1.60;;;12.80;1.00;;;;;;6866218;19;2004397;-70
2023/11/14 11:54:50;;;;;;;4.38;1.23;;;12.80;1.00;;;;;;7375693;19;20018;-70
2023/11/14 11:57:22;;;;;;;4.63;1.25;;;13.00;1.00;;;;;;7374145;19;20039;-71
2023/11/14 12:00:22;;;;;;;3.75;1.30;;;12.90;1.00;;;;;;7374851;19;20089;-71
2023/11/14 12:02:53;;;;;;;3.40;1.33;;;13.00;1.00;;;;;;7372928;19;20010;-72
2023/11/14 12:05:28;;;;;;;4.57;1.25;;;13.00;1.00;;;;;;7375856;19;20021;-72
2023/11/14 12:07:59;;;;;;;4.50;1.23;;;13.00;1.00;;;;;;7375314;19;20509;-71
2023/11/14 12:10:29;;;;;;;4.88;1.38;;;12.90;1.00;;;;;;7375915;19;20011;-71
2023/11/14 12:13:00;;;;;;;4.20;1.45;;;12.80;1.00;;;;;;7373125;19;20010;-72
2023/11/14 12:15:34;;;;;;;;;;;12.90;1.00;;;;;;7375207;19;20090;-72
2023/11/14 12:18:06;;;;;;;2.88;1.20;;;13.00;1.00;;;;;;7374486;19;19911;-70
2023/11/14 12:20:38;;;;;;;3.40;1.45;;;13.10;1.00;;;;;;7374818;19;20056;-71
2023/11/14 12:23:08;;;;;;;4.47;1.00;;;13.20;1.00;;;;;;7375798;19;20010;-71
2023/11/14 12:25:41;;;;;;;3.03;0.95;;;13.10;1.00;;;;;;7375106;19;20015;-71
2023/11/14 12:28:11;;;;;;;3.25;1.02;;;12.90;1.00;;;;;;7375947;19;20045;-71
2023/11/14 12:30:58;;;;;;;5.00;1.35;;;12.80;1.00;;;;;;7375542;19;20014;-71
2023/11/14 12:33:28;;;;;;;5.97;1.55;;;12.80;1.00;;;;;;7373083;19;20026;-70
2023/11/14 12:36:01;;;;;;;9.98;1.65;;;12.70;1.00;;;;;;7373759;19;20007;-71
2023/11/14 12:38:32;;;;;;;4.70;1.25;;;12.70;1.00;;;;;;7375030;19;20142;-71
2023/11/14 12:41:26;;;;;;;3.53;1.35;;;12.70;1.00;;;;;;7374508;19;20027;-70
2023/11/14 12:43:58;;;;;;;10.13;5.43;;;12.70;1.00;;;;;;7373066;19;20121;-70
2023/11/14 12:46:39;;;;;;;2.95;1.00;;;12.80;1.00;;;;;;7374491;19;20036;-70
2023/11/14 12:49:15;;;;;;;3.45;1.38;;;12.80;1.00;;;;;;7374503;19;20013;-71
2023/11/14 12:51:51;;;;;;;4.03;1.50;;;12.80;1.00;;;;;;7375577;19;20018;-71
2023/11/14 12:54:22;;;;;;;1.95;1.15;;;12.80;1.00;;;;;;7380152;19;20373;-71
2023/11/14 12:56:54;;;;;;;6.00;1.60;;;12.80;1.00;;;;;;7381199;19;20094;-71
2023/11/14 12:59:25;;;;;;;2.75;1.27;;;12.80;1.00;;;;;;7378818;19;20032;-71
2023/11/14 13:01:56;;;;;;;4.07;1.60;;;12.80;1.00;;;;;;7379578;19;20518;-71
2023/11/14 13:04:26;;;;;;;4.00;1.30;;;12.80;1.00;;;;;;7381569;19;20010;-70
2023/11/14 13:06:59;;;;;;;6.35;1.30;;;12.70;1.00;;;;;;7382688;19;20010;-71
2023/11/14 13:09:29;;;;;;;3.75;1.27;;;12.70;1.00;;;;;;7379178;19;20035;-71
2023/11/14 13:12:00;;;;;;;5.60;1.27;;;12.70;1.00;;;;;;7380619;19;20014;-71
2023/11/14 13:14:30;;;;;;;5.63;1.40;;;12.60;1.00;;;;;;7380181;19;20439;-70
2023/11/14 13:17:00;;;;;;;4.40;1.38;;;12.60;1.00;;;;;;7381871;19;20088;-70